createdAt,value
2023-03-16T00:01:02.866Z,66.52
2023-03-16T00:03:30.614Z,66.33
2023-03-16T00:05:57.559Z,66.67
2023-03-16T00:08:24.479Z,66.50
2023-03-16T00:10:54.355Z,66.31
2023-03-16T00:13:25.386Z,66.43
2023-03-16T00:15:56.425Z,66.42
2023-03-16T00:18:27.362Z,66.74
2023-03-16T00:20:55.637Z,66.51
2023-03-16T00:23:28.988Z,66.86
2023-03-16T00:25:56.844Z,66.51
2023-03-16T00:28:23.868Z,66.87
2023-03-16T00:30:50.912Z,66.64
2023-03-16T00:33:18.105Z,66.72
2023-03-16T00:35:49.979Z,66.74
2023-03-16T00:38:20.555Z,67.16
2023-03-16T00:40:47.484Z,66.83
2023-03-16T00:43:18.850Z,66.87
2023-03-16T00:45:45.969Z,66.71
2023-03-16T00:48:13.143Z,66.84
2023-03-16T00:50:40.246Z,66.75
2023-03-16T00:53:07.174Z,66.82
2023-03-16T00:55:34.144Z,66.77
2023-03-16T00:58:05.127Z,66.80
2023-03-16T01:00:32.568Z,67.30
2023-03-16T01:02:59.447Z,66.82
2023-03-16T01:05:26.359Z,67.09
2023-03-16T01:07:53.129Z,67.02
2023-03-16T01:10:20.952Z,67.18
2023-03-16T01:12:48.117Z,66.97
2023-03-16T01:15:15.016Z,66.94
2023-03-16T01:17:41.975Z,67.25
2023-03-16T01:20:12.219Z,67.46
2023-03-16T01:22:39.110Z,67.23
2023-03-16T01:25:06.174Z,67.43
2023-03-16T01:27:33.162Z,67.33
2023-03-16T01:30:00.257Z,67.30
2023-03-16T01:32:27.183Z,67.23
2023-03-16T01:34:54.055Z,67.37
2023-03-16T01:37:22.987Z,67.40
2023-03-16T01:39:55.455Z,67.06
2023-03-16T01:42:22.434Z,67.08
2023-03-16T01:44:55.234Z,67.10
2023-03-16T01:47:24.656Z,67.22
2023-03-16T01:49:55.192Z,67.59
2023-03-16T01:52:27.109Z,67.41
2023-03-16T01:55:04.515Z,67.61
2023-03-16T01:57:37.026Z,67.48
2023-03-16T02:00:20.079Z,67.25
2023-03-16T02:03:08.013Z,67.53
2023-03-16T02:05:47.592Z,67.54
2023-03-16T02:08:16.869Z,67.60
2023-03-16T02:10:45.415Z,67.76
2023-03-16T02:13:12.836Z,67.78
2023-03-16T02:15:40.224Z,67.72
2023-03-16T02:18:08.039Z,67.71
2023-03-16T02:20:57.584Z,67.70
2023-03-16T02:23:25.545Z,67.41
2023-03-16T02:26:03.601Z,67.84
2023-03-16T02:28:45.298Z,67.64
2023-03-16T02:31:12.489Z,67.83
2023-03-16T02:33:40.324Z,67.65
2023-03-16T02:36:08.875Z,67.66
2023-03-16T02:38:35.926Z,67.75
2023-03-16T02:41:14.785Z,67.69
2023-03-16T02:43:44.177Z,67.84
2023-03-16T02:46:21.656Z,68.03
2023-03-16T02:49:08.963Z,67.56
2023-03-16T02:51:37.174Z,67.98
2023-03-16T02:54:04.235Z,67.53
2023-03-16T02:56:34.623Z,67.91
2023-03-16T02:59:01.498Z,67.86
2023-03-16T03:01:32.654Z,67.60
2023-03-16T03:03:59.572Z,67.52
2023-03-16T03:06:26.454Z,67.73
2023-03-16T03:08:53.496Z,67.74
2023-03-16T03:11:21.161Z,67.78
2023-03-16T03:13:47.944Z,68.09
2023-03-16T03:16:18.924Z,67.85
2023-03-16T03:18:45.884Z,67.98
2023-03-16T03:21:13.145Z,68.13
2023-03-16T03:23:40.612Z,67.48
2023-03-16T03:26:07.934Z,67.70
2023-03-16T03:28:34.824Z,67.83
2023-03-16T03:31:01.971Z,67.97
2023-03-16T03:33:29.675Z,67.96
2023-03-16T03:35:58.215Z,67.71
2023-03-16T03:38:27.629Z,67.80
2023-03-16T03:40:59.659Z,67.96
2023-03-16T03:43:30.198Z,68.24
2023-03-16T03:46:00.984Z,67.77
2023-03-16T03:48:28.665Z,67.89
2023-03-16T03:50:57.202Z,68.06
2023-03-16T03:53:42.693Z,67.84
2023-03-16T03:56:24.438Z,67.60
2023-03-16T03:58:51.293Z,67.78
2023-03-16T04:01:33.439Z,68.18
2023-03-16T04:04:00.762Z,67.97
2023-03-16T04:06:28.082Z,67.79
2023-03-16T04:08:55.280Z,67.69
2023-03-16T04:11:26.035Z,68.03
2023-03-16T04:13:53.643Z,68.09
2023-03-16T04:16:21.431Z,68.04
2023-03-16T04:18:51.949Z,68.27
2023-03-16T04:21:18.844Z,68.03
2023-03-16T04:23:48.124Z,68.40
2023-03-16T04:26:14.987Z,68.23
2023-03-16T04:28:44.129Z,67.94
2023-03-16T04:31:14.424Z,68.27
2023-03-16T04:33:44.678Z,68.01
2023-03-16T04:36:12.326Z,68.12
2023-03-16T04:38:40.510Z,68.40
2023-03-16T04:41:07.481Z,68.53
2023-03-16T04:43:39.064Z,68.39
2023-03-16T04:46:12.494Z,68.52
2023-03-16T04:48:40.150Z,68.48
2023-03-16T04:51:07.293Z,68.23
2023-03-16T04:53:38.106Z,68.40
2023-03-16T04:56:19.806Z,68.22
2023-03-16T04:58:52.473Z,68.57
2023-03-16T05:01:22.175Z,68.35
2023-03-16T05:03:53.028Z,68.23
2023-03-16T05:06:20.240Z,68.41
2023-03-16T05:08:47.105Z,68.62
2023-03-16T05:11:14.006Z,68.28
2023-03-16T05:13:50.193Z,68.36
2023-03-16T05:16:17.174Z,68.42
2023-03-16T05:18:43.909Z,68.50
2023-03-16T05:21:10.834Z,68.24
2023-03-16T05:24:02.544Z,68.40
2023-03-16T05:26:29.427Z,68.34
2023-03-16T05:28:56.450Z,68.56
2023-03-16T05:31:28.942Z,68.29
2023-03-16T05:33:58.807Z,68.17
2023-03-16T05:36:26.009Z,68.37
2023-03-16T05:38:58.360Z,68.47
2023-03-16T05:41:36.514Z,68.39
2023-03-16T05:44:08.583Z,68.77
2023-03-16T05:46:52.881Z,68.92
2023-03-16T05:49:20.401Z,68.54
2023-03-16T05:51:47.168Z,68.78
2023-03-16T05:54:14.065Z,68.43
2023-03-16T05:56:45.977Z,68.86
2023-03-16T05:59:13.020Z,68.53
2023-03-16T06:01:41.984Z,68.24
2023-03-16T06:04:09.134Z,68.72
2023-03-16T06:06:40.159Z,68.60
2023-03-16T06:09:22.177Z,68.73
2023-03-16T06:11:49.141Z,68.92
2023-03-16T06:14:17.657Z,68.46
2023-03-16T06:16:45.835Z,68.72
2023-03-16T06:19:14.137Z,68.67
2023-03-16T06:21:41.663Z,68.67
2023-03-16T06:24:10.358Z,68.61
2023-03-16T06:26:37.484Z,69.18
2023-03-16T06:29:07.244Z,68.70
2023-03-16T06:31:36.621Z,68.87
2023-03-16T06:34:03.695Z,68.93
2023-03-16T06:36:31.165Z,68.79
2023-03-16T06:39:00.894Z,68.75
2023-03-16T06:41:38.237Z,69.02
2023-03-16T06:44:09.223Z,69.02
2023-03-16T06:46:41.771Z,68.85
2023-03-16T06:49:08.790Z,68.62
2023-03-16T06:51:35.668Z,68.39
2023-03-16T06:54:02.750Z,68.58
2023-03-16T06:56:31.858Z,69.04
2023-03-16T06:58:58.683Z,69.21
2023-03-16T07:01:25.944Z,69.08
2023-03-16T07:03:53.186Z,68.99
2023-03-16T07:06:24.804Z,68.80
2023-03-16T07:08:51.770Z,68.65
2023-03-16T07:11:20.040Z,68.98
2023-03-16T07:13:47.155Z,68.60
2023-03-16T07:16:15.903Z,69.23
2023-03-16T07:18:44.523Z,68.89
2023-03-16T07:21:14.484Z,68.93
2023-03-16T07:23:42.254Z,68.68
2023-03-16T07:26:12.115Z,69.29
2023-03-16T07:28:48.286Z,69.29
2023-03-16T07:31:15.698Z,69.20
2023-03-16T07:33:42.793Z,68.89
2023-03-16T07:36:13.964Z,69.41
2023-03-16T07:38:46.175Z,69.22
2023-03-16T07:41:14.249Z,69.05
2023-03-16T07:43:41.579Z,69.04
2023-03-16T07:46:13.758Z,69.15
2023-03-16T07:48:42.684Z,69.29
2023-03-16T07:51:11.867Z,68.57
2023-03-16T07:53:39.556Z,68.80
2023-03-16T07:56:16.071Z,68.39
2023-03-16T07:58:45.919Z,68.84
2023-03-16T08:01:12.754Z,68.71
2023-03-16T08:03:39.635Z,69.08
2023-03-16T08:06:07.141Z,69.39
2023-03-16T08:08:35.312Z,69.39
2023-03-16T08:11:02.323Z,69.47
2023-03-16T08:13:44.131Z,69.29
2023-03-16T08:16:13.599Z,69.37
2023-03-16T08:18:43.663Z,68.81
2023-03-16T08:21:10.778Z,69.36
2023-03-16T08:23:37.619Z,69.03
2023-03-16T08:26:09.141Z,68.95
2023-03-16T08:28:38.036Z,69.72
2023-03-16T08:31:09.530Z,69.27
2023-03-16T08:33:44.311Z,69.50
2023-03-16T08:36:13.723Z,69.27
2023-03-16T08:38:44.171Z,69.16
2023-03-16T08:41:17.531Z,69.61
2023-03-16T08:43:47.844Z,68.98
2023-03-16T08:46:14.785Z,68.97
2023-03-16T08:48:55.905Z,69.19
2023-03-16T08:51:25.071Z,69.01
2023-03-16T08:53:53.009Z,69.10
2023-03-16T08:56:20.051Z,69.11
2023-03-16T08:58:46.802Z,69.21
2023-03-16T09:01:14.642Z,69.12
2023-03-16T09:03:42.596Z,68.94
2023-03-16T09:06:11.190Z,69.10
2023-03-16T09:08:41.051Z,69.09
2023-03-16T09:11:10.603Z,69.47
2023-03-16T09:13:38.857Z,69.00
2023-03-16T09:16:06.897Z,68.95
2023-03-16T09:18:35.456Z,68.94
2023-03-16T09:21:04.203Z,69.03
2023-03-16T09:23:31.981Z,69.57
2023-03-16T09:26:00.080Z,69.13
2023-03-16T09:28:30.950Z,69.56
2023-03-16T09:30:58.574Z,69.17
2023-03-16T09:33:25.865Z,69.61
2023-03-16T09:35:52.805Z,69.15
2023-03-16T09:38:19.632Z,68.92
2023-03-16T09:40:49.010Z,69.26
2023-03-16T09:43:15.715Z,69.33
2023-03-16T09:45:42.672Z,69.37
2023-03-16T09:48:10.797Z,69.42
2023-03-16T09:50:48.912Z,69.58
2023-03-16T09:53:24.972Z,69.21
2023-03-16T09:56:03.729Z,69.25
2023-03-16T09:58:33.002Z,69.01
2023-03-16T10:01:20.016Z,69.24
2023-03-16T10:03:57.277Z,69.11
2023-03-16T10:06:24.974Z,69.55
2023-03-16T10:08:52.280Z,69.07
2023-03-16T10:11:32.293Z,68.96
2023-03-16T10:14:11.730Z,68.89
2023-03-16T10:16:41.881Z,68.77
2023-03-16T10:19:13.324Z,69.38
2023-03-16T10:21:41.408Z,69.19
2023-03-16T10:24:27.314Z,69.38
2023-03-16T10:27:00.989Z,68.85
2023-03-16T10:29:32.297Z,68.91
2023-03-16T10:32:01.540Z,69.12
2023-03-16T10:34:28.763Z,69.29
2023-03-16T10:36:55.774Z,69.08
2023-03-16T10:39:22.524Z,69.31
2023-03-16T10:41:56.296Z,68.98
2023-03-16T10:44:24.660Z,69.45
2023-03-16T10:46:59.792Z,69.15
2023-03-16T10:49:27.384Z,69.32
2023-03-16T10:51:59.651Z,69.36
2023-03-16T10:54:32.675Z,69.57
2023-03-16T10:57:00.618Z,69.57
2023-03-16T10:59:27.916Z,69.63
2023-03-16T11:01:54.942Z,69.03
2023-03-16T11:04:21.888Z,69.15
2023-03-16T11:06:51.639Z,69.15
2023-03-16T11:09:24.059Z,69.33
2023-03-16T11:11:51.197Z,69.44
2023-03-16T11:14:20.342Z,69.51
2023-03-16T11:16:51.230Z,69.46
2023-03-16T11:19:24.300Z,69.24
2023-03-16T11:22:01.482Z,69.11
2023-03-16T11:24:34.813Z,68.94
2023-03-16T11:27:04.601Z,69.04
2023-03-16T11:29:34.831Z,69.45
2023-03-16T11:32:05.793Z,69.62
2023-03-16T11:34:33.352Z,69.83
2023-03-16T11:37:06.371Z,69.69
2023-03-16T11:39:45.268Z,69.17
2023-03-16T11:42:18.817Z,69.40
2023-03-16T11:44:55.993Z,69.66
2023-03-16T11:47:27.174Z,69.78
2023-03-16T11:50:03.065Z,69.81
2023-03-16T11:52:49.455Z,69.24
2023-03-16T11:55:46.754Z,69.67
2023-03-16T11:58:16.623Z,69.56
2023-03-16T12:00:46.897Z,69.13
2023-03-16T12:03:17.651Z,69.19
2023-03-16T12:05:47.916Z,69.39
2023-03-16T12:08:17.727Z,69.34
2023-03-16T12:10:47.444Z,69.53
2023-03-16T12:13:17.341Z,69.29
2023-03-16T12:15:52.255Z,69.59
2023-03-16T12:18:42.543Z,69.26
2023-03-16T12:21:20.213Z,69.87
2023-03-16T12:23:55.474Z,69.25
2023-03-16T12:26:24.741Z,69.46
2023-03-16T12:28:53.169Z,69.64
2023-03-16T12:31:24.101Z,69.62
2023-03-16T12:34:00.637Z,69.89
2023-03-16T12:36:30.423Z,69.28
2023-03-16T12:39:02.293Z,69.27
2023-03-16T12:41:49.283Z,69.79
2023-03-16T12:44:19.242Z,69.31
2023-03-16T12:46:53.616Z,69.32
2023-03-16T12:49:24.903Z,69.58
2023-03-16T12:52:02.659Z,69.78
2023-03-16T12:54:30.023Z,69.81
2023-03-16T12:57:02.294Z,69.38
2023-03-16T12:59:36.978Z,69.46
2023-03-16T13:02:04.209Z,70.08
2023-03-16T13:04:33.929Z,69.98
2023-03-16T13:07:03.293Z,69.77
2023-03-16T13:09:35.314Z,69.55
2023-03-16T13:12:05.229Z,69.70
2023-03-16T13:14:43.382Z,69.45
2023-03-16T13:17:16.252Z,69.27
2023-03-16T13:19:45.207Z,69.37
2023-03-16T13:22:26.147Z,70.02
2023-03-16T13:25:14.138Z,70.10
2023-03-16T13:27:43.539Z,70.24
2023-03-16T13:30:18.964Z,69.79
2023-03-16T13:32:46.936Z,69.80
2023-03-16T13:35:15.572Z,70.32
2023-03-16T13:37:43.862Z,70.37
2023-03-16T13:40:22.104Z,70.16
2023-03-16T13:42:54.899Z,70.15
2023-03-16T13:45:23.442Z,69.91
2023-03-16T13:47:50.707Z,70.07
2023-03-16T13:50:19.011Z,70.17
2023-03-16T13:52:56.196Z,70.71
2023-03-16T13:55:26.872Z,70.30
2023-03-16T13:57:53.660Z,70.36
2023-03-16T14:00:24.871Z,70.26
2023-03-16T14:02:53.297Z,70.63
2023-03-16T14:05:22.484Z,70.20
2023-03-16T14:07:51.075Z,70.71
2023-03-16T14:10:18.135Z,70.76
2023-03-16T14:12:51.819Z,70.55
2023-03-16T14:15:19.130Z,70.44
2023-03-16T14:17:46.491Z,70.24
2023-03-16T14:20:21.269Z,70.91
2023-03-16T14:22:50.879Z,70.41
2023-03-16T14:25:23.742Z,70.59
2023-03-16T14:27:58.609Z,70.63
2023-03-16T14:30:28.000Z,70.67
2023-03-16T14:33:01.786Z,70.99
2023-03-16T14:35:30.455Z,71.04
2023-03-16T14:37:57.942Z,71.27
2023-03-16T14:40:30.800Z,70.95
2023-03-16T14:42:59.886Z,71.30
2023-03-16T14:45:30.327Z,71.09
2023-03-16T14:48:03.489Z,71.65
2023-03-16T14:50:31.170Z,71.67
2023-03-16T14:52:58.293Z,71.76
2023-03-16T14:55:26.017Z,71.84
2023-03-16T14:57:53.386Z,71.66
2023-03-16T15:00:21.936Z,72.01
2023-03-16T15:02:55.003Z,72.39
2023-03-16T15:05:24.651Z,72.43
2023-03-16T15:07:55.704Z,72.76
2023-03-16T15:10:24.835Z,72.94
2023-03-16T15:12:54.791Z,73.34
2023-03-16T15:15:23.816Z,72.88
2023-03-16T15:17:52.053Z,72.40
2023-03-16T15:20:23.327Z,72.53
2023-03-16T15:22:53.025Z,72.24
2023-03-16T15:25:20.778Z,72.78
2023-03-16T15:27:48.156Z,73.22
2023-03-16T15:30:16.562Z,72.92
2023-03-16T15:32:43.582Z,73.03
2023-03-16T15:35:10.945Z,73.09
2023-03-16T15:37:37.895Z,73.13
2023-03-16T15:40:18.442Z,72.95
2023-03-16T15:42:46.946Z,72.55
2023-03-16T15:45:15.777Z,72.51
2023-03-16T15:47:43.423Z,72.59
2023-03-16T15:50:11.690Z,72.97
2023-03-16T15:52:39.678Z,72.83
2023-03-16T15:55:08.562Z,72.89
2023-03-16T15:57:35.719Z,72.60
2023-03-16T16:00:02.690Z,72.79
2023-03-16T16:02:34.446Z,72.76
2023-03-16T16:05:03.605Z,72.52
2023-03-16T16:07:30.576Z,72.68
2023-03-16T16:09:57.514Z,72.88
2023-03-16T16:12:32.677Z,72.81
2023-03-16T16:14:59.450Z,73.18
2023-03-16T16:17:48.051Z,73.18
2023-03-16T16:20:18.195Z,72.84
2023-03-16T16:22:45.300Z,73.14
2023-03-16T16:25:15.671Z,72.86
2023-03-16T16:27:45.400Z,72.82
2023-03-16T16:30:24.198Z,72.63
2023-03-16T16:32:51.728Z,72.79
2023-03-16T16:35:28.270Z,72.73
2023-03-16T16:37:56.004Z,72.41
2023-03-16T16:40:25.968Z,72.70
2023-03-16T16:42:53.909Z,72.42
2023-03-16T16:45:25.970Z,72.76
2023-03-16T16:47:55.739Z,72.89
2023-03-16T16:50:27.708Z,72.90
2023-03-16T16:52:55.148Z,73.29
2023-03-16T16:55:25.138Z,73.47
2023-03-16T16:57:54.106Z,73.58
2023-03-16T17:00:25.928Z,73.41
2023-03-16T17:02:54.500Z,73.57
2023-03-16T17:05:23.398Z,73.80
2023-03-16T17:07:51.137Z,73.69
2023-03-16T17:10:28.465Z,73.84
2023-03-16T17:12:57.904Z,73.96
2023-03-16T17:15:30.266Z,73.90
2023-03-16T17:18:15.733Z,73.69
2023-03-16T17:20:42.628Z,73.67
2023-03-16T17:23:25.178Z,73.96
2023-03-16T17:25:53.307Z,73.75
2023-03-16T17:28:20.652Z,73.28
2023-03-16T17:30:50.481Z,73.56
2023-03-16T17:33:22.187Z,73.36
2023-03-16T17:35:51.611Z,73.18
2023-03-16T17:38:22.320Z,73.34
2023-03-16T17:40:53.574Z,73.50
2023-03-16T17:43:39.130Z,73.50
2023-03-16T17:46:07.514Z,73.19
2023-03-16T17:48:41.620Z,73.21
2023-03-16T17:51:15.568Z,73.70
2023-03-16T17:53:49.370Z,73.54
2023-03-16T17:56:35.849Z,73.69
2023-03-16T17:59:05.621Z,74.08
2023-03-16T18:01:36.016Z,74.15
2023-03-16T18:04:03.535Z,73.91
2023-03-16T18:06:31.398Z,73.88
2023-03-16T18:08:58.400Z,73.78
2023-03-16T18:11:30.916Z,73.64
2023-03-16T18:13:58.228Z,73.57
2023-03-16T18:16:31.435Z,73.50
2023-03-16T18:19:06.072Z,73.42
2023-03-16T18:21:33.618Z,73.49
2023-03-16T18:24:03.524Z,73.53
2023-03-16T18:28:41.650Z,73.59
2023-03-16T18:30:19.994Z,73.45
2023-03-16T18:32:47.884Z,73.68
2023-03-16T18:35:15.798Z,73.60
2023-03-16T18:37:43.342Z,73.53
2023-03-16T18:40:17.396Z,73.36
2023-03-16T18:42:47.119Z,73.81
2023-03-16T18:45:18.403Z,73.76
2023-03-16T18:47:49.196Z,73.71
2023-03-16T18:50:19.935Z,73.69
2023-03-16T18:52:49.700Z,74.07
2023-03-16T18:55:18.595Z,73.65
2023-03-16T18:57:49.553Z,73.96
2023-03-16T19:00:21.476Z,73.61
2023-03-16T19:02:53.303Z,73.52
2023-03-16T19:05:22.481Z,73.84
2023-03-16T19:07:51.682Z,74.06
2023-03-16T19:10:23.831Z,74.23
2023-03-16T19:12:51.025Z,74.17
2023-03-16T19:15:22.792Z,74.00
2023-03-16T19:17:51.834Z,74.01
2023-03-16T19:20:20.630Z,73.91
2023-03-16T19:22:49.364Z,74.06
2023-03-16T19:25:29.634Z,74.42
2023-03-16T19:27:59.596Z,74.38
2023-03-16T19:30:30.333Z,74.20
2023-03-16T19:32:58.242Z,74.17
2023-03-16T19:35:44.321Z,73.99
2023-03-16T19:38:15.230Z,73.99
2023-03-16T19:40:42.675Z,74.52
2023-03-16T19:43:15.245Z,74.48
2023-03-16T19:45:43.140Z,74.18
2023-03-16T19:48:22.466Z,74.22
2023-03-16T19:50:50.173Z,74.80
2023-03-16T19:53:22.636Z,74.41
2023-03-16T19:55:50.807Z,74.50
2023-03-16T19:58:31.490Z,74.66
2023-03-16T20:01:03.626Z,74.43
2023-03-16T20:03:34.246Z,73.82
2023-03-16T20:06:01.367Z,74.00
2023-03-16T20:08:29.262Z,74.19
2023-03-16T20:11:05.727Z,74.57
2023-03-16T20:13:35.785Z,74.37
2023-03-16T20:16:03.678Z,74.34
2023-03-16T20:18:30.634Z,74.43
2023-03-16T20:20:58.781Z,74.77
2023-03-16T20:23:27.038Z,74.36
2023-03-16T20:26:02.990Z,74.44
2023-03-16T20:28:38.885Z,74.44
2023-03-16T20:31:08.334Z,74.39
2023-03-16T20:33:36.532Z,74.12
2023-03-16T20:36:07.881Z,74.12
2023-03-16T20:38:34.806Z,74.02
2023-03-16T20:41:01.884Z,73.94
2023-03-16T20:43:30.316Z,74.27
2023-03-16T20:45:59.171Z,74.07
2023-03-16T20:48:31.239Z,73.99
2023-03-16T20:53:43.918Z,73.88
2023-03-16T20:56:14.696Z,74.00
2023-03-16T20:58:44.645Z,74.14
2023-03-16T21:01:18.752Z,74.05
2023-03-16T21:03:47.839Z,73.85
2023-03-16T21:06:26.471Z,73.87
2023-03-16T21:09:05.984Z,73.94
2023-03-16T21:11:36.102Z,73.63
2023-03-16T21:14:03.521Z,73.56
2023-03-16T21:16:31.085Z,73.45
2023-03-16T21:18:57.955Z,73.41
2023-03-16T21:21:25.688Z,73.21
2023-03-16T21:23:52.803Z,73.63
2023-03-16T21:26:52.768Z,73.77
2023-03-16T21:29:22.086Z,73.47
2023-03-16T21:31:49.123Z,73.48
2023-03-16T21:34:30.324Z,73.50
2023-03-16T21:37:01.439Z,73.25
2023-03-16T21:39:30.370Z,73.28
2023-03-16T21:41:57.199Z,73.02
2023-03-16T21:44:24.171Z,73.09
2023-03-16T21:46:51.234Z,73.40
2023-03-16T21:49:18.251Z,73.13
2023-03-16T21:51:45.169Z,73.09
2023-03-16T21:54:14.558Z,73.16
2023-03-16T21:56:43.006Z,73.08
2023-03-16T21:59:10.122Z,73.02
2023-03-16T22:01:54.340Z,73.02
2023-03-16T22:04:28.024Z,72.80
2023-03-16T22:06:54.846Z,73.24
2023-03-16T22:09:30.179Z,73.00
2023-03-16T22:11:57.251Z,72.74
2023-03-16T22:14:24.063Z,72.85
2023-03-16T22:16:51.776Z,72.77
2023-03-16T22:19:19.033Z,72.78
2023-03-16T22:21:47.322Z,73.01
2023-03-16T22:24:16.615Z,72.77
2023-03-16T22:26:43.491Z,72.94
2023-03-16T22:29:30.812Z,72.64
2023-03-16T22:32:08.604Z,72.74
2023-03-16T22:34:38.276Z,72.81
2023-03-16T22:37:05.751Z,72.73
2023-03-16T22:39:35.503Z,72.61
2023-03-16T22:42:02.584Z,72.36
2023-03-16T22:44:29.782Z,72.72
2023-03-16T22:46:56.924Z,72.77
2023-03-16T22:49:26.416Z,72.43
2023-03-16T22:51:55.586Z,72.55
2023-03-16T22:54:24.854Z,72.71
2023-03-16T22:56:52.237Z,72.74
2023-03-16T22:59:21.037Z,72.61
2023-03-16T23:01:49.342Z,72.88
2023-03-16T23:04:18.812Z,72.68
2023-03-16T23:06:47.312Z,72.76
2023-03-16T23:09:15.507Z,72.61
2023-03-16T23:11:43.747Z,72.85
2023-03-16T23:14:14.994Z,72.68
2023-03-16T23:16:42.140Z,72.62
2023-03-16T23:19:25.223Z,72.68
2023-03-16T23:21:54.677Z,72.70
2023-03-16T23:24:22.260Z,72.54
2023-03-16T23:26:49.796Z,72.62
2023-03-16T23:29:16.749Z,72.75
2023-03-16T23:31:43.666Z,72.31
2023-03-16T23:34:14.490Z,72.51
2023-03-16T23:36:41.443Z,72.60
2023-03-16T23:39:09.100Z,72.85
2023-03-16T23:41:36.522Z,72.84
2023-03-16T23:44:05.095Z,72.62
2023-03-16T23:46:32.121Z,72.35
2023-03-16T23:49:01.925Z,72.84
2023-03-16T23:51:30.968Z,72.47
2023-03-16T23:53:58.411Z,72.60
2023-03-16T23:56:26.282Z,72.49
2023-03-16T23:58:53.394Z,72.79
